sensor_id;sensor_type;location;lat;lon;timestamp;P1;durP1;ratioP1;P2;durP2;ratioP2
13672;SDS011;6909;52.202;9.876;2023-06-26T00:01:36;2.95;;;2.50;;
13672;SDS011;6909;52.202;9.876;2023-06-26T00:04:04;3.13;;;2.65;;
13672;SDS011;6909;52.202;9.876;2023-06-26T00:06:31;3.08;;;2.72;;
13672;SDS011;6909;52.202;9.876;2023-06-26T00:08:58;3.05;;;2.80;;
13672;SDS011;6909;52.202;9.876;2023-06-26T00:11:28;3.53;;;2.25;;
13672;SDS011;6909;52.202;9.876;2023-06-26T00:13:58;3.17;;;2.58;;
13672;SDS011;6909;52.202;9.876;2023-06-26T00:16:25;3.08;;;2.50;;
13672;SDS011;6909;52.202;9.876;2023-06-26T00:18:52;4.10;;;2.50;;
13672;SDS011;6909;52.202;9.876;2023-06-26T00:21:19;3.15;;;2.47;;
13672;SDS011;6909;52.202;9.876;2023-06-26T00:23:45;2.80;;;2.47;;
13672;SDS011;6909;52.202;9.876;2023-06-26T00:26:12;3.05;;;2.45;;
13672;SDS011;6909;52.202;9.876;2023-06-26T00:28:40;2.75;;;2.40;;
13672;SDS011;6909;52.202;9.876;2023-06-26T00:31:07;3.33;;;2.67;;
13672;SDS011;6909;52.202;9.876;2023-06-26T00:33:33;2.95;;;2.20;;
13672;SDS011;6909;52.202;9.876;2023-06-26T00:36:00;2.30;;;2.10;;
13672;SDS011;6909;52.202;9.876;2023-06-26T00:38:27;1.95;;;1.63;;
13672;SDS011;6909;52.202;9.876;2023-06-26T00:40:53;2.97;;;2.25;;
13672;SDS011;6909;52.202;9.876;2023-06-26T00:43:21;2.05;;;1.80;;
13672;SDS011;6909;52.202;9.876;2023-06-26T00:45:49;2.03;;;1.75;;
13672;SDS011;6909;52.202;9.876;2023-06-26T00:48:15;3.20;;;2.10;;
13672;SDS011;6909;52.202;9.876;2023-06-26T00:50:43;1.73;;;1.55;;
13672;SDS011;6909;52.202;9.876;2023-06-26T00:53:10;1.95;;;1.50;;
13672;SDS011;6909;52.202;9.876;2023-06-26T00:55:37;2.15;;;1.75;;
13672;SDS011;6909;52.202;9.876;2023-06-26T00:58:04;2.42;;;2.22;;
13672;SDS011;6909;52.202;9.876;2023-06-26T01:00:31;2.05;;;1.65;;
13672;SDS011;6909;52.202;9.876;2023-06-26T01:02:59;2.05;;;1.85;;
13672;SDS011;6909;52.202;9.876;2023-06-26T01:05:26;2.75;;;1.90;;
13672;SDS011;6909;52.202;9.876;2023-06-26T01:07:53;3.88;;;1.90;;
13672;SDS011;6909;52.202;9.876;2023-06-26T01:10:21;2.15;;;1.80;;
13672;SDS011;6909;52.202;9.876;2023-06-26T01:12:48;2.95;;;2.17;;
13672;SDS011;6909;52.202;9.876;2023-06-26T01:15:15;1.67;;;1.52;;
13672;SDS011;6909;52.202;9.876;2023-06-26T01:17:42;1.95;;;1.85;;
13672;SDS011;6909;52.202;9.876;2023-06-26T01:20:11;1.63;;;1.52;;
13672;SDS011;6909;52.202;9.876;2023-06-26T01:22:40;1.90;;;1.80;;
13672;SDS011;6909;52.202;9.876;2023-06-26T01:25:15;2.05;;;1.73;;
13672;SDS011;6909;52.202;9.876;2023-06-26T01:27:50;2.58;;;1.90;;
13672;SDS011;6909;52.202;9.876;2023-06-26T01:30:18;2.58;;;1.98;;
13672;SDS011;6909;52.202;9.876;2023-06-26T01:32:47;2.20;;;1.80;;
13672;SDS011;6909;52.202;9.876;2023-06-26T01:35:14;2.28;;;1.70;;
13672;SDS011;6909;52.202;9.876;2023-06-26T01:37:41;1.88;;;1.70;;
13672;SDS011;6909;52.202;9.876;2023-06-26T01:40:08;2.35;;;2.10;;
13672;SDS011;6909;52.202;9.876;2023-06-26T01:42:36;2.10;;;1.85;;
13672;SDS011;6909;52.202;9.876;2023-06-26T01:45:05;2.08;;;1.88;;
13672;SDS011;6909;52.202;9.876;2023-06-26T01:47:37;1.60;;;1.50;;
13672;SDS011;6909;52.202;9.876;2023-06-26T01:50:11;2.13;;;1.70;;
13672;SDS011;6909;52.202;9.876;2023-06-26T01:52:43;1.40;;;1.30;;
13672;SDS011;6909;52.202;9.876;2023-06-26T01:55:17;1.77;;;1.52;;
13672;SDS011;6909;52.202;9.876;2023-06-26T01:57:49;2.05;;;1.55;;
13672;SDS011;6909;52.202;9.876;2023-06-26T02:00:21;2.28;;;1.75;;
13672;SDS011;6909;52.202;9.876;2023-06-26T02:02:49;1.45;;;1.33;;
13672;SDS011;6909;52.202;9.876;2023-06-26T02:05:15;1.80;;;1.50;;
13672;SDS011;6909;52.202;9.876;2023-06-26T02:07:42;3.55;;;1.80;;
13672;SDS011;6909;52.202;9.876;2023-06-26T02:10:09;1.60;;;1.45;;
13672;SDS011;6909;52.202;9.876;2023-06-26T02:12:37;2.08;;;1.58;;
13672;SDS011;6909;52.202;9.876;2023-06-26T02:15:04;2.85;;;1.80;;
13672;SDS011;6909;52.202;9.876;2023-06-26T02:17:33;2.22;;;2.03;;
13672;SDS011;6909;52.202;9.876;2023-06-26T02:19:59;2.13;;;1.65;;
13672;SDS011;6909;52.202;9.876;2023-06-26T02:22:26;1.90;;;1.70;;
13672;SDS011;6909;52.202;9.876;2023-06-26T02:24:53;1.83;;;1.73;;
13672;SDS011;6909;52.202;9.876;2023-06-26T02:27:20;1.77;;;1.65;;
13672;SDS011;6909;52.202;9.876;2023-06-26T02:29:47;1.83;;;1.73;;
13672;SDS011;6909;52.202;9.876;2023-06-26T02:32:13;1.80;;;1.60;;
13672;SDS011;6909;52.202;9.876;2023-06-26T02:34:41;2.03;;;1.58;;
13672;SDS011;6909;52.202;9.876;2023-06-26T02:37:08;2.00;;;1.80;;
13672;SDS011;6909;52.202;9.876;2023-06-26T02:39:35;1.83;;;1.73;;
13672;SDS011;6909;52.202;9.876;2023-06-26T02:42:02;2.13;;;1.60;;
13672;SDS011;6909;52.202;9.876;2023-06-26T02:44:29;1.80;;;1.30;;
13672;SDS011;6909;52.202;9.876;2023-06-26T02:46:55;2.10;;;1.90;;
13672;SDS011;6909;52.202;9.876;2023-06-26T02:49:22;2.40;;;1.55;;
13672;SDS011;6909;52.202;9.876;2023-06-26T02:51:50;1.60;;;1.50;;
13672;SDS011;6909;52.202;9.876;2023-06-26T02:54:17;1.95;;;1.58;;
13672;SDS011;6909;52.202;9.876;2023-06-26T02:56:43;2.35;;;1.80;;
13672;SDS011;6909;52.202;9.876;2023-06-26T02:59:10;1.80;;;1.50;;
13672;SDS011;6909;52.202;9.876;2023-06-26T03:01:36;2.45;;;1.80;;
13672;SDS011;6909;52.202;9.876;2023-06-26T03:04:03;2.47;;;1.60;;
13672;SDS011;6909;52.202;9.876;2023-06-26T03:06:30;2.00;;;1.60;;
13672;SDS011;6909;52.202;9.876;2023-06-26T03:08:58;2.22;;;1.70;;
13672;SDS011;6909;52.202;9.876;2023-06-26T03:11:24;2.10;;;1.77;;
13672;SDS011;6909;52.202;9.876;2023-06-26T03:13:51;2.08;;;1.77;;
13672;SDS011;6909;52.202;9.876;2023-06-26T03:16:18;1.25;;;1.13;;
13672;SDS011;6909;52.202;9.876;2023-06-26T03:18:44;2.10;;;1.70;;
13672;SDS011;6909;52.202;9.876;2023-06-26T03:21:11;3.05;;;1.75;;
13672;SDS011;6909;52.202;9.876;2023-06-26T03:23:38;1.48;;;1.38;;
13672;SDS011;6909;52.202;9.876;2023-06-26T03:26:06;1.77;;;1.58;;
13672;SDS011;6909;52.202;9.876;2023-06-26T03:28:32;1.90;;;1.63;;
13672;SDS011;6909;52.202;9.876;2023-06-26T03:30:59;2.10;;;1.48;;
13672;SDS011;6909;52.202;9.876;2023-06-26T03:33:25;2.38;;;1.90;;
13672;SDS011;6909;52.202;9.876;2023-06-26T03:35:52;1.90;;;1.42;;
13672;SDS011;6909;52.202;9.876;2023-06-26T03:38:19;2.70;;;2.13;;
13672;SDS011;6909;52.202;9.876;2023-06-26T03:40:46;2.50;;;2.03;;
13672;SDS011;6909;52.202;9.876;2023-06-26T03:43:14;2.17;;;1.98;;
13672;SDS011;6909;52.202;9.876;2023-06-26T03:45:40;2.90;;;1.73;;
13672;SDS011;6909;52.202;9.876;2023-06-26T03:48:07;2.22;;;1.60;;
13672;SDS011;6909;52.202;9.876;2023-06-26T03:50:33;3.88;;;1.88;;
13672;SDS011;6909;52.202;9.876;2023-06-26T03:53:00;1.27;;;1.17;;
13672;SDS011;6909;52.202;9.876;2023-06-26T03:55:27;2.13;;;1.58;;
13672;SDS011;6909;52.202;9.876;2023-06-26T03:57:53;3.05;;;2.03;;
13672;SDS011;6909;52.202;9.876;2023-06-26T04:00:21;1.83;;;1.67;;
13672;SDS011;6909;52.202;9.876;2023-06-26T04:02:48;2.33;;;1.55;;
13672;SDS011;6909;52.202;9.876;2023-06-26T04:05:16;2.97;;;2.00;;
13672;SDS011;6909;52.202;9.876;2023-06-26T04:07:43;2.28;;;1.63;;
13672;SDS011;6909;52.202;9.876;2023-06-26T04:10:09;2.08;;;1.60;;
13672;SDS011;6909;52.202;9.876;2023-06-26T04:12:36;1.70;;;1.60;;
13672;SDS011;6909;52.202;9.876;2023-06-26T04:15:03;2.58;;;2.00;;
13672;SDS011;6909;52.202;9.876;2023-06-26T04:17:32;2.50;;;2.30;;
13672;SDS011;6909;52.202;9.876;2023-06-26T04:19:58;1.60;;;1.50;;
13672;SDS011;6909;52.202;9.876;2023-06-26T04:22:25;2.53;;;1.67;;
13672;SDS011;6909;52.202;9.876;2023-06-26T04:24:52;2.92;;;2.00;;
13672;SDS011;6909;52.202;9.876;2023-06-26T04:27:18;2.58;;;2.38;;
13672;SDS011;6909;52.202;9.876;2023-06-26T04:29:45;3.58;;;2.20;;
13672;SDS011;6909;52.202;9.876;2023-06-26T04:32:11;2.15;;;2.00;;
13672;SDS011;6909;52.202;9.876;2023-06-26T04:34:39;2.22;;;2.03;;
13672;SDS011;6909;52.202;9.876;2023-06-26T04:37:08;2.65;;;1.63;;
13672;SDS011;6909;52.202;9.876;2023-06-26T04:39:35;4.00;;;1.85;;
13672;SDS011;6909;52.202;9.876;2023-06-26T04:42:03;2.15;;;1.85;;
13672;SDS011;6909;52.202;9.876;2023-06-26T04:44:30;4.22;;;1.90;;
13672;SDS011;6909;52.202;9.876;2023-06-26T04:46:57;2.13;;;1.92;;
13672;SDS011;6909;52.202;9.876;2023-06-26T04:49:23;3.00;;;1.95;;
13672;SDS011;6909;52.202;9.876;2023-06-26T04:51:52;2.53;;;2.10;;
13672;SDS011;6909;52.202;9.876;2023-06-26T04:54:18;1.98;;;1.80;;
13672;SDS011;6909;52.202;9.876;2023-06-26T04:56:45;3.50;;;2.65;;
13672;SDS011;6909;52.202;9.876;2023-06-26T04:59:13;2.42;;;2.22;;
13672;SDS011;6909;52.202;9.876;2023-06-26T05:01:39;2.40;;;2.20;;
13672;SDS011;6909;52.202;9.876;2023-06-26T05:04:06;2.40;;;2.20;;
13672;SDS011;6909;52.202;9.876;2023-06-26T05:06:33;2.58;;;2.38;;
13672;SDS011;6909;52.202;9.876;2023-06-26T05:09:01;2.42;;;2.22;;
13672;SDS011;6909;52.202;9.876;2023-06-26T05:11:28;2.35;;;2.15;;
13672;SDS011;6909;52.202;9.876;2023-06-26T05:13:54;2.33;;;2.13;;
13672;SDS011;6909;52.202;9.876;2023-06-26T05:16:21;2.05;;;1.95;;
13672;SDS011;6909;52.202;9.876;2023-06-26T05:18:48;2.78;;;2.15;;
13672;SDS011;6909;52.202;9.876;2023-06-26T05:21:14;2.88;;;2.53;;
13672;SDS011;6909;52.202;9.876;2023-06-26T05:23:42;2.20;;;2.05;;
13672;SDS011;6909;52.202;9.876;2023-06-26T05:26:11;2.50;;;2.30;;
13672;SDS011;6909;52.202;9.876;2023-06-26T05:28:38;3.13;;;2.63;;
13672;SDS011;6909;52.202;9.876;2023-06-26T05:31:05;2.35;;;2.15;;
13672;SDS011;6909;52.202;9.876;2023-06-26T05:33:33;2.45;;;2.25;;
13672;SDS011;6909;52.202;9.876;2023-06-26T05:36:02;2.40;;;2.20;;
13672;SDS011;6909;52.202;9.876;2023-06-26T05:38:31;2.40;;;2.20;;
13672;SDS011;6909;52.202;9.876;2023-06-26T05:40:58;2.58;;;2.38;;
13672;SDS011;6909;52.202;9.876;2023-06-26T05:43:26;2.53;;;2.33;;
13672;SDS011;6909;52.202;9.876;2023-06-26T05:45:53;2.72;;;2.30;;
13672;SDS011;6909;52.202;9.876;2023-06-26T05:48:20;2.70;;;2.50;;
13672;SDS011;6909;52.202;9.876;2023-06-26T05:50:47;2.60;;;2.30;;
13672;SDS011;6909;52.202;9.876;2023-06-26T05:53:14;2.42;;;2.22;;
13672;SDS011;6909;52.202;9.876;2023-06-26T05:55:41;3.05;;;2.55;;
13672;SDS011;6909;52.202;9.876;2023-06-26T05:58:09;2.47;;;2.10;;
13672;SDS011;6909;52.202;9.876;2023-06-26T06:00:38;2.42;;;2.28;;
13672;SDS011;6909;52.202;9.876;2023-06-26T06:03:05;2.30;;;2.20;;
13672;SDS011;6909;52.202;9.876;2023-06-26T06:05:32;2.30;;;2.10;;
13672;SDS011;6909;52.202;9.876;2023-06-26T06:07:59;2.83;;;2.60;;
13672;SDS011;6909;52.202;9.876;2023-06-26T06:10:25;2.50;;;2.30;;
13672;SDS011;6909;52.202;9.876;2023-06-26T06:12:52;2.40;;;2.20;;
13672;SDS011;6909;52.202;9.876;2023-06-26T06:15:19;3.33;;;3.05;;
13672;SDS011;6909;52.202;9.876;2023-06-26T06:17:47;2.75;;;2.55;;
13672;SDS011;6909;52.202;9.876;2023-06-26T06:20:14;2.75;;;2.55;;
13672;SDS011;6909;52.202;9.876;2023-06-26T06:22:40;2.33;;;2.20;;
13672;SDS011;6909;52.202;9.876;2023-06-26T06:25:07;2.67;;;2.47;;
13672;SDS011;6909;52.202;9.876;2023-06-26T06:27:34;2.65;;;2.45;;
13672;SDS011;6909;52.202;9.876;2023-06-26T06:30:01;2.90;;;2.70;;
13672;SDS011;6909;52.202;9.876;2023-06-26T06:32:28;2.50;;;2.30;;
13672;SDS011;6909;52.202;9.876;2023-06-26T06:34:56;3.28;;;2.97;;
13672;SDS011;6909;52.202;9.876;2023-06-26T06:37:23;2.90;;;2.60;;
13672;SDS011;6909;52.202;9.876;2023-06-26T06:39:50;2.50;;;2.40;;
13672;SDS011;6909;52.202;9.876;2023-06-26T06:42:16;2.90;;;2.70;;
13672;SDS011;6909;52.202;9.876;2023-06-26T06:44:43;2.60;;;2.40;;
13672;SDS011;6909;52.202;9.876;2023-06-26T06:47:09;2.50;;;2.30;;
13672;SDS011;6909;52.202;9.876;2023-06-26T06:49:36;2.67;;;2.47;;
13672;SDS011;6909;52.202;9.876;2023-06-26T06:52:05;2.92;;;2.72;;
13672;SDS011;6909;52.202;9.876;2023-06-26T06:54:32;2.72;;;2.53;;
13672;SDS011;6909;52.202;9.876;2023-06-26T06:57:17;2.60;;;2.40;;
13672;SDS011;6909;52.202;9.876;2023-06-26T06:59:44;3.00;;;2.80;;
13672;SDS011;6909;52.202;9.876;2023-06-26T07:02:12;2.80;;;2.60;;
13672;SDS011;6909;52.202;9.876;2023-06-26T07:04:39;2.78;;;2.58;;
13672;SDS011;6909;52.202;9.876;2023-06-26T07:07:07;2.88;;;2.67;;
13672;SDS011;6909;52.202;9.876;2023-06-26T07:09:33;2.63;;;2.42;;
13672;SDS011;6909;52.202;9.876;2023-06-26T07:12:00;2.72;;;2.53;;
13672;SDS011;6909;52.202;9.876;2023-06-26T07:14:27;2.72;;;2.53;;
13672;SDS011;6909;52.202;9.876;2023-06-26T07:16:54;3.08;;;2.78;;
13672;SDS011;6909;52.202;9.876;2023-06-26T07:19:21;2.95;;;2.75;;
13672;SDS011;6909;52.202;9.876;2023-06-26T07:21:47;4.13;;;2.85;;
13672;SDS011;6909;52.202;9.876;2023-06-26T07:24:15;2.42;;;2.20;;
13672;SDS011;6909;52.202;9.876;2023-06-26T07:26:42;2.92;;;2.72;;
13672;SDS011;6909;52.202;9.876;2023-06-26T07:29:09;2.75;;;2.55;;
13672;SDS011;6909;52.202;9.876;2023-06-26T07:31:35;2.50;;;2.30;;
13672;SDS011;6909;52.202;9.876;2023-06-26T07:34:02;2.28;;;2.17;;
13672;SDS011;6909;52.202;9.876;2023-06-26T07:36:29;2.72;;;2.53;;
13672;SDS011;6909;52.202;9.876;2023-06-26T07:38:55;3.15;;;2.95;;
13672;SDS011;6909;52.202;9.876;2023-06-26T07:41:23;2.75;;;2.55;;
13672;SDS011;6909;52.202;9.876;2023-06-26T07:43:50;2.70;;;2.50;;
13672;SDS011;6909;52.202;9.876;2023-06-26T07:46:17;2.83;;;2.55;;
13672;SDS011;6909;52.202;9.876;2023-06-26T07:48:43;3.33;;;2.72;;
13672;SDS011;6909;52.202;9.876;2023-06-26T07:51:10;3.05;;;2.42;;
13672;SDS011;6909;52.202;9.876;2023-06-26T07:53:36;3.00;;;2.80;;
13672;SDS011;6909;52.202;9.876;2023-06-26T07:56:03;2.90;;;2.67;;
13672;SDS011;6909;52.202;9.876;2023-06-26T07:58:32;3.10;;;2.85;;
13672;SDS011;6909;52.202;9.876;2023-06-26T08:00:58;3.20;;;3.00;;
13672;SDS011;6909;52.202;9.876;2023-06-26T08:03:25;3.63;;;3.17;;
13672;SDS011;6909;52.202;9.876;2023-06-26T08:05:51;3.00;;;2.80;;
13672;SDS011;6909;52.202;9.876;2023-06-26T08:08:18;2.83;;;2.60;;
13672;SDS011;6909;52.202;9.876;2023-06-26T08:10:45;3.10;;;2.90;;
13672;SDS011;6909;52.202;9.876;2023-06-26T08:13:12;3.38;;;3.08;;
13672;SDS011;6909;52.202;9.876;2023-06-26T08:15:39;2.90;;;2.67;;
13672;SDS011;6909;52.202;9.876;2023-06-26T08:18:06;3.40;;;2.95;;
13672;SDS011;6909;52.202;9.876;2023-06-26T08:20:33;3.65;;;2.75;;
13672;SDS011;6909;52.202;9.876;2023-06-26T08:23:00;3.33;;;2.95;;
13672;SDS011;6909;52.202;9.876;2023-06-26T08:25:27;3.38;;;3.10;;
13672;SDS011;6909;52.202;9.876;2023-06-26T08:27:54;12.13;;;4.47;;
13672;SDS011;6909;52.202;9.876;2023-06-26T08:30:21;3.22;;;2.92;;
13672;SDS011;6909;52.202;9.876;2023-06-26T08:32:54;3.60;;;3.30;;
13672;SDS011;6909;52.202;9.876;2023-06-26T08:35:20;3.95;;;3.65;;
13672;SDS011;6909;52.202;9.876;2023-06-26T08:37:47;3.75;;;3.45;;
13672;SDS011;6909;52.202;9.876;2023-06-26T08:40:14;3.28;;;2.97;;
13672;SDS011;6909;52.202;9.876;2023-06-26T08:42:43;3.22;;;3.03;;
13672;SDS011;6909;52.202;9.876;2023-06-26T08:45:10;3.70;;;3.40;;
13672;SDS011;6909;52.202;9.876;2023-06-26T08:47:37;3.33;;;3.03;;
13672;SDS011;6909;52.202;9.876;2023-06-26T08:50:07;3.35;;;3.10;;
13672;SDS011;6909;52.202;9.876;2023-06-26T08:52:36;4.28;;;3.80;;
13672;SDS011;6909;52.202;9.876;2023-06-26T08:55:08;3.55;;;3.28;;
13672;SDS011;6909;52.202;9.876;2023-06-26T08:57:36;4.13;;;3.83;;
13672;SDS011;6909;52.202;9.876;2023-06-26T09:00:04;4.03;;;3.60;;
13672;SDS011;6909;52.202;9.876;2023-06-26T09:02:33;3.42;;;3.13;;
13672;SDS011;6909;52.202;9.876;2023-06-26T09:05:01;3.25;;;2.92;;
13672;SDS011;6909;52.202;9.876;2023-06-26T09:07:29;3.70;;;3.40;;
13672;SDS011;6909;52.202;9.876;2023-06-26T09:09:56;3.97;;;3.53;;
13672;SDS011;6909;52.202;9.876;2023-06-26T09:12:22;5.40;;;3.47;;
13672;SDS011;6909;52.202;9.876;2023-06-26T09:14:52;3.60;;;3.28;;
13672;SDS011;6909;52.202;9.876;2023-06-26T09:17:21;3.60;;;3.30;;
13672;SDS011;6909;52.202;9.876;2023-06-26T09:19:50;3.88;;;3.58;;
13672;SDS011;6909;52.202;9.876;2023-06-26T09:22:17;3.97;;;3.53;;
13672;SDS011;6909;52.202;9.876;2023-06-26T09:24:45;4.13;;;3.72;;
13672;SDS011;6909;52.202;9.876;2023-06-26T09:27:14;4.32;;;3.88;;
13672;SDS011;6909;52.202;9.876;2023-06-26T09:29:42;3.97;;;3.30;;
13672;SDS011;6909;52.202;9.876;2023-06-26T09:32:12;6.05;;;3.92;;
13672;SDS011;6909;52.202;9.876;2023-06-26T09:34:41;3.55;;;3.25;;
13672;SDS011;6909;52.202;9.876;2023-06-26T09:37:10;4.40;;;3.78;;
13672;SDS011;6909;52.202;9.876;2023-06-26T09:39:38;3.53;;;3.22;;
13672;SDS011;6909;52.202;9.876;2023-06-26T09:42:06;4.13;;;3.72;;
13672;SDS011;6909;52.202;9.876;2023-06-26T09:44:33;3.70;;;3.40;;
13672;SDS011;6909;52.202;9.876;2023-06-26T09:47:00;3.55;;;3.25;;
13672;SDS011;6909;52.202;9.876;2023-06-26T09:49:28;3.72;;;3.42;;
13672;SDS011;6909;52.202;9.876;2023-06-26T09:51:54;3.47;;;3.17;;
13672;SDS011;6909;52.202;9.876;2023-06-26T09:54:21;3.63;;;3.33;;
13672;SDS011;6909;52.202;9.876;2023-06-26T09:56:50;6.07;;;3.90;;
13672;SDS011;6909;52.202;9.876;2023-06-26T09:59:18;3.42;;;3.13;;
13672;SDS011;6909;52.202;9.876;2023-06-26T10:01:45;3.67;;;3.38;;
13672;SDS011;6909;52.202;9.876;2023-06-26T10:04:12;4.15;;;3.30;;
13672;SDS011;6909;52.202;9.876;2023-06-26T10:06:41;4.47;;;2.63;;
13672;SDS011;6909;52.202;9.876;2023-06-26T10:09:11;4.07;;;3.05;;
13672;SDS011;6909;52.202;9.876;2023-06-26T10:11:41;3.22;;;2.53;;
13672;SDS011;6909;52.202;9.876;2023-06-26T10:14:11;3.08;;;2.88;;
13672;SDS011;6909;52.202;9.876;2023-06-26T10:16:41;3.13;;;2.28;;
13672;SDS011;6909;52.202;9.876;2023-06-26T10:19:10;2.78;;;2.58;;
13672;SDS011;6909;52.202;9.876;2023-06-26T10:21:39;3.45;;;3.15;;
13672;SDS011;6909;52.202;9.876;2023-06-26T10:24:06;3.40;;;2.97;;
13672;SDS011;6909;52.202;9.876;2023-06-26T10:26:34;4.93;;;3.22;;
13672;SDS011;6909;52.202;9.876;2023-06-26T10:29:06;3.50;;;3.13;;
13672;SDS011;6909;52.202;9.876;2023-06-26T10:31:34;5.88;;;3.80;;
13672;SDS011;6909;52.202;9.876;2023-06-26T10:34:03;3.45;;;3.15;;
13672;SDS011;6909;52.202;9.876;2023-06-26T10:36:31;3.58;;;3.28;;
13672;SDS011;6909;52.202;9.876;2023-06-26T10:38:58;5.78;;;3.90;;
13672;SDS011;6909;52.202;9.876;2023-06-26T10:41:30;4.53;;;3.50;;
13672;SDS011;6909;52.202;9.876;2023-06-26T10:44:06;4.20;;;3.80;;
13672;SDS011;6909;52.202;9.876;2023-06-26T10:46:47;5.05;;;4.40;;
13672;SDS011;6909;52.202;9.876;2023-06-26T10:49:16;4.10;;;3.78;;
13672;SDS011;6909;52.202;9.876;2023-06-26T10:51:46;5.57;;;4.93;;
13672;SDS011;6909;52.202;9.876;2023-06-26T10:54:14;5.72;;;4.05;;
13672;SDS011;6909;52.202;9.876;2023-06-26T10:56:41;5.45;;;4.22;;
13672;SDS011;6909;52.202;9.876;2023-06-26T10:59:16;4.65;;;3.58;;
13672;SDS011;6909;52.202;9.876;2023-06-26T11:01:44;4.30;;;3.40;;
13672;SDS011;6909;52.202;9.876;2023-06-26T11:04:12;3.30;;;3.00;;
13672;SDS011;6909;52.202;9.876;2023-06-26T11:06:44;4.43;;;3.58;;
13672;SDS011;6909;52.202;9.876;2023-06-26T11:09:14;3.95;;;3.08;;
13672;SDS011;6909;52.202;9.876;2023-06-26T11:11:56;3.30;;;3.00;;
13672;SDS011;6909;52.202;9.876;2023-06-26T11:14:27;2.83;;;2.28;;
13672;SDS011;6909;52.202;9.876;2023-06-26T11:16:55;2.97;;;2.53;;
13672;SDS011;6909;52.202;9.876;2023-06-26T11:19:22;5.05;;;2.92;;
13672;SDS011;6909;52.202;9.876;2023-06-26T11:21:52;2.90;;;2.58;;
13672;SDS011;6909;52.202;9.876;2023-06-26T11:24:23;2.60;;;2.40;;
13672;SDS011;6909;52.202;9.876;2023-06-26T11:26:51;2.67;;;2.00;;
13672;SDS011;6909;52.202;9.876;2023-06-26T11:29:18;3.33;;;2.53;;
13672;SDS011;6909;52.202;9.876;2023-06-26T11:31:45;3.25;;;2.95;;
13672;SDS011;6909;52.202;9.876;2023-06-26T11:34:12;4.30;;;3.35;;
13672;SDS011;6909;52.202;9.876;2023-06-26T11:36:40;3.08;;;2.70;;
13672;SDS011;6909;52.202;9.876;2023-06-26T11:39:12;4.20;;;3.17;;
13672;SDS011;6909;52.202;9.876;2023-06-26T11:41:40;3.58;;;2.72;;
13672;SDS011;6909;52.202;9.876;2023-06-26T11:44:07;3.58;;;3.28;;
13672;SDS011;6909;52.202;9.876;2023-06-26T11:46:35;3.33;;;3.03;;
13672;SDS011;6909;52.202;9.876;2023-06-26T11:49:03;3.55;;;2.90;;
13672;SDS011;6909;52.202;9.876;2023-06-26T11:51:30;3.30;;;2.78;;
13672;SDS011;6909;52.202;9.876;2023-06-26T11:53:57;5.35;;;2.92;;
13672;SDS011;6909;52.202;9.876;2023-06-26T11:56:27;3.05;;;2.85;;
13672;SDS011;6909;52.202;9.876;2023-06-26T11:58:55;4.75;;;3.33;;
13672;SDS011;6909;52.202;9.876;2023-06-26T12:01:23;6.88;;;3.13;;
13672;SDS011;6909;52.202;9.876;2023-06-26T12:03:51;4.03;;;3.35;;
13672;SDS011;6909;52.202;9.876;2023-06-26T12:06:19;3.45;;;3.08;;
13672;SDS011;6909;52.202;9.876;2023-06-26T12:08:46;4.97;;;3.70;;
13672;SDS011;6909;52.202;9.876;2023-06-26T12:11:13;3.35;;;3.00;;
13672;SDS011;6909;52.202;9.876;2023-06-26T12:13:41;4.35;;;3.17;;
13672;SDS011;6909;52.202;9.876;2023-06-26T12:16:08;3.95;;;3.10;;
13672;SDS011;6909;52.202;9.876;2023-06-26T12:18:36;4.00;;;3.70;;
13672;SDS011;6909;52.202;9.876;2023-06-26T12:21:03;4.30;;;3.90;;
13672;SDS011;6909;52.202;9.876;2023-06-26T12:23:33;3.97;;;3.63;;
13672;SDS011;6909;52.202;9.876;2023-06-26T12:26:17;4.20;;;3.70;;
13672;SDS011;6909;52.202;9.876;2023-06-26T12:28:45;3.35;;;3.00;;
13672;SDS011;6909;52.202;9.876;2023-06-26T12:31:13;3.97;;;3.10;;
13672;SDS011;6909;52.202;9.876;2023-06-26T12:33:40;2.65;;;2.45;;
13672;SDS011;6909;52.202;9.876;2023-06-26T12:36:10;4.13;;;2.60;;
13672;SDS011;6909;52.202;9.876;2023-06-26T12:38:37;3.90;;;2.00;;
13672;SDS011;6909;52.202;9.876;2023-06-26T12:41:04;2.30;;;2.10;;
13672;SDS011;6909;52.202;9.876;2023-06-26T12:43:30;2.30;;;2.10;;
13672;SDS011;6909;52.202;9.876;2023-06-26T12:45:58;2.10;;;1.90;;
13672;SDS011;6909;52.202;9.876;2023-06-26T12:48:36;2.53;;;2.13;;
13672;SDS011;6909;52.202;9.876;2023-06-26T12:51:07;3.05;;;1.83;;
13672;SDS011;6909;52.202;9.876;2023-06-26T12:53:35;3.03;;;1.95;;
13672;SDS011;6909;52.202;9.876;2023-06-26T12:56:01;3.50;;;2.00;;
13672;SDS011;6909;52.202;9.876;2023-06-26T12:58:28;1.83;;;1.52;;
13672;SDS011;6909;52.202;9.876;2023-06-26T13:00:55;1.75;;;1.52;;
13672;SDS011;6909;52.202;9.876;2023-06-26T13:03:23;2.95;;;1.90;;
13672;SDS011;6909;52.202;9.876;2023-06-26T13:05:50;1.98;;;1.60;;
13672;SDS011;6909;52.202;9.876;2023-06-26T13:08:17;2.03;;;1.55;;
13672;SDS011;6909;52.202;9.876;2023-06-26T13:10:43;2.35;;;1.83;;
13672;SDS011;6909;52.202;9.876;2023-06-26T13:13:10;2.05;;;1.80;;
13672;SDS011;6909;52.202;9.876;2023-06-26T13:15:37;2.00;;;1.60;;
13672;SDS011;6909;52.202;9.876;2023-06-26T13:18:04;2.90;;;1.80;;
13672;SDS011;6909;52.202;9.876;2023-06-26T13:20:32;1.58;;;1.40;;
13672;SDS011;6909;52.202;9.876;2023-06-26T13:22:59;1.85;;;1.60;;
13672;SDS011;6909;52.202;9.876;2023-06-26T13:25:25;6.07;;;1.85;;
13672;SDS011;6909;52.202;9.876;2023-06-26T13:27:52;1.95;;;1.50;;
13672;SDS011;6909;52.202;9.876;2023-06-26T13:30:19;2.35;;;1.40;;
13672;SDS011;6909;52.202;9.876;2023-06-26T13:32:45;1.55;;;1.45;;
13672;SDS011;6909;52.202;9.876;2023-06-26T13:35:12;1.48;;;1.38;;
13672;SDS011;6909;52.202;9.876;2023-06-26T13:37:41;1.15;;;1.05;;
13672;SDS011;6909;52.202;9.876;2023-06-26T13:40:08;1.30;;;1.15;;
13672;SDS011;6909;52.202;9.876;2023-06-26T13:42:35;1.65;;;1.55;;
13672;SDS011;6909;52.202;9.876;2023-06-26T13:45:03;1.55;;;1.40;;
13672;SDS011;6909;52.202;9.876;2023-06-26T13:47:31;1.65;;;1.50;;
13672;SDS011;6909;52.202;9.876;2023-06-26T13:49:59;2.13;;;1.80;;
13672;SDS011;6909;52.202;9.876;2023-06-26T13:52:26;1.80;;;1.70;;
13672;SDS011;6909;52.202;9.876;2023-06-26T13:54:54;2.05;;;1.45;;
13672;SDS011;6909;52.202;9.876;2023-06-26T13:57:20;1.40;;;1.30;;
13672;SDS011;6909;52.202;9.876;2023-06-26T13:59:47;1.42;;;1.30;;
13672;SDS011;6909;52.202;9.876;2023-06-26T14:02:14;2.38;;;1.42;;
13672;SDS011;6909;52.202;9.876;2023-06-26T14:04:41;1.38;;;1.27;;
13672;SDS011;6909;52.202;9.876;2023-06-26T14:07:08;1.00;;;0.90;;
13672;SDS011;6909;52.202;9.876;2023-06-26T14:09:35;1.63;;;1.33;;
13672;SDS011;6909;52.202;9.876;2023-06-26T14:12:03;1.35;;;1.20;;
13672;SDS011;6909;52.202;9.876;2023-06-26T14:14:31;1.42;;;1.00;;
13672;SDS011;6909;52.202;9.876;2023-06-26T14:16:58;1.55;;;1.10;;
13672;SDS011;6909;52.202;9.876;2023-06-26T14:19:25;1.83;;;1.08;;
13672;SDS011;6909;52.202;9.876;2023-06-26T14:21:51;1.52;;;1.20;;
13672;SDS011;6909;52.202;9.876;2023-06-26T14:24:18;1.40;;;1.13;;
13672;SDS011;6909;52.202;9.876;2023-06-26T14:26:45;1.10;;;1.00;;
13672;SDS011;6909;52.202;9.876;2023-06-26T14:29:13;1.20;;;1.10;;
13672;SDS011;6909;52.202;9.876;2023-06-26T14:31:42;1.13;;;0.98;;
13672;SDS011;6909;52.202;9.876;2023-06-26T14:34:08;1.30;;;1.05;;
13672;SDS011;6909;52.202;9.876;2023-06-26T14:36:35;1.40;;;1.30;;
13672;SDS011;6909;52.202;9.876;2023-06-26T14:39:02;1.40;;;1.30;;
13672;SDS011;6909;52.202;9.876;2023-06-26T14:41:29;1.23;;;0.95;;
13672;SDS011;6909;52.202;9.876;2023-06-26T14:43:56;1.58;;;1.10;;
13672;SDS011;6909;52.202;9.876;2023-06-26T14:46:24;1.30;;;1.20;;
13672;SDS011;6909;52.202;9.876;2023-06-26T14:48:50;1.25;;;1.25;;
13672;SDS011;6909;52.202;9.876;2023-06-26T14:51:17;1.23;;;1.13;;
13672;SDS011;6909;52.202;9.876;2023-06-26T14:53:44;1.10;;;0.88;;
13672;SDS011;6909;52.202;9.876;2023-06-26T14:56:12;2.83;;;1.20;;
13672;SDS011;6909;52.202;9.876;2023-06-26T14:58:39;1.40;;;1.30;;
13672;SDS011;6909;52.202;9.876;2023-06-26T15:01:05;1.90;;;1.10;;
13672;SDS011;6909;52.202;9.876;2023-06-26T15:03:33;1.73;;;1.10;;